Time;durP1;ratioP1;P1;durP2;ratioP2;P2;SDS_P1;SDS_P2;PMS_P1;PMS_P2;Temp;Humidity;BMP_temperature;BMP_pressure;BME280_temperature;BME280_humidity;BME280_pressure;Samples;Min_cycle;Max_cycle;Signal;HPM_P1;HPM_P2
2021/12/28 00:00:58;;;;;;;56.72;25.23;;;;;;;;;;5064767;28;43707;-84
2021/12/28 00:03:25;;;;;;;;;;;;;;;;;;5050514;28;43089;-83
2021/12/28 00:05:51;;;;;;;55.80;23.00;;;;;;;;;;5049532;28;44077;-83
2021/12/28 00:08:19;;;;;;;63.00;25.25;;;;;;;;;;5047866;28;45114;-83
2021/12/28 00:10:47;;;;;;;52.05;23.52;;;;;;;;;;5048809;28;43793;-83
2021/12/28 00:13:15;;;;;;;50.83;23.67;;;;;;;;;;5047980;28;42845;-83
2021/12/28 00:18:22;;;;;;;65.60;23.88;;;;;;;;;;5052056;28;43862;-83
2021/12/28 00:20:52;;;;;;;55.85;25.17;;;;;;;;;;5051907;28;43656;-83
2021/12/28 00:23:20;;;;;;;51.80;22.55;;;;;;;;;;5050691;28;44881;-83
2021/12/28 00:25:48;;;;;;;57.15;23.30;;;;;;;;;;5051515;28;45117;-83
2021/12/28 00:28:15;;;;;;;41.67;22.30;;;;;;;;;;5051265;28;42710;-83
2021/12/28 00:30:42;;;;;;;43.30;20.65;;;;;;;;;;5051100;28;44890;-83
2021/12/28 00:33:08;;;;;;;46.80;20.48;;;;;;;;;;5051127;28;42921;-83
2021/12/28 00:35:37;;;;;;;50.25;21.63;;;;;;;;;;5052063;28;44744;-83
2021/12/28 00:38:04;;;;;;;45.10;18.10;;;;;;;;;;5050275;28;43502;-83
2021/12/28 00:40:31;;;;;;;44.83;18.65;;;;;;;;;;5052268;28;35711;-83
2021/12/28 00:42:58;;;;;;;36.40;17.25;;;;;;;;;;5050418;28;43112;-83
2021/12/28 00:45:25;;;;;;;52.50;17.80;;;;;;;;;;5050762;28;44235;-83
2021/12/28 00:47:51;;;;;;;42.63;16.52;;;;;;;;;;5050579;28;42943;-83
2021/12/28 00:50:18;;;;;;;44.40;15.98;;;;;;;;;;5050543;28;43382;-83
2021/12/28 00:52:46;;;;;;;51.97;17.58;;;;;;;;;;5050575;28;43883;-83
2021/12/28 00:55:13;;;;;;;45.30;15.98;;;;;;;;;;5051343;28;43761;-83
2021/12/28 00:57:40;;;;;;;48.38;15.95;;;;;;;;;;5049996;28;42828;-83
2021/12/28 01:00:09;;;;;;;46.15;16.27;;;;;;;;;;5051528;28;44975;-83
2021/12/28 01:02:36;;;;;;;48.67;15.18;;;;;;;;;;5050683;28;42815;-83
2021/12/28 01:05:04;;;;;;;37.65;14.30;;;;;;;;;;5050229;28;43440;-83
2021/12/28 01:07:31;;;;;;;32.70;13.57;;;;;;;;;;5050623;28;44842;-83
2021/12/28 01:09:58;;;;;;;39.65;14.68;;;;;;;;;;5051692;28;42812;-83
2021/12/28 01:12:24;;;;;;;45.20;14.68;;;;;;;;;;5049825;28;43882;-83
2021/12/28 01:14:51;;;;;;;44.13;13.75;;;;;;;;;;5051190;28;44763;-83
2021/12/28 01:17:18;;;;;;;29.25;13.02;;;;;;;;;;5050291;28;42762;-83
2021/12/28 01:19:44;;;;;;;49.00;13.85;;;;;;;;;;5050115;28;43937;-83
2021/12/28 01:22:11;;;;;;;39.60;13.00;;;;;;;;;;5050583;28;43719;-83
2021/12/28 01:24:38;;;;;;;40.47;13.30;;;;;;;;;;5050669;28;43656;-83
2021/12/28 01:27:05;;;;;;;37.58;12.73;;;;;;;;;;5049593;28;43864;-83
2021/12/28 01:29:32;;;;;;;44.42;13.25;;;;;;;;;;5051523;28;42831;-83
2021/12/28 01:31:59;;;;;;;34.35;11.02;;;;;;;;;;5050234;28;44848;-83
2021/12/28 01:34:26;;;;;;;45.72;12.38;;;;;;;;;;5049750;28;42479;-83
2021/12/28 01:36:53;;;;;;;37.25;12.00;;;;;;;;;;5050240;28;44599;-83
2021/12/28 01:39:20;;;;;;;47.03;12.18;;;;;;;;;;5051012;28;44915;-83
2021/12/28 01:41:47;;;;;;;49.47;12.38;;;;;;;;;;5049323;28;44524;-83
2021/12/28 01:44:14;;;;;;;38.97;12.15;;;;;;;;;;5050601;28;45266;-83
2021/12/28 01:46:40;;;;;;;34.95;11.07;;;;;;;;;;5049502;28;43650;-83
2021/12/28 01:49:08;;;;;;;48.30;11.48;;;;;;;;;;5050693;28;44916;-83
2021/12/28 01:51:35;;;;;;;35.10;11.38;;;;;;;;;;5049747;28;42519;-83
2021/12/28 01:54:04;;;;;;;40.92;11.45;;;;;;;;;;5049982;28;45024;-82
2021/12/28 01:56:36;;;;;;;33.28;10.90;;;;;;;;;;5049983;28;44859;-83
2021/12/28 01:59:03;;;;;;;31.92;10.43;;;;;;;;;;5050763;28;42982;-83
2021/12/28 02:01:30;;;;;;;39.72;11.43;;;;;;;;;;5049357;28;43680;-83
2021/12/28 02:03:57;;;;;;;39.20;10.35;;;;;;;;;;5050553;28;42663;-83
2021/12/28 02:06:25;;;;;;;50.13;11.23;;;;;;;;;;5049994;28;44239;-83
2021/12/28 02:08:52;;;;;;;42.28;9.55;;;;;;;;;;5049859;28;43864;-83
2021/12/28 02:11:19;;;;;;;36.78;9.77;;;;;;;;;;5049797;28;43475;-83
2021/12/28 02:13:46;;;;;;;36.92;10.18;;;;;;;;;;5050401;28;44680;-83
2021/12/28 02:16:14;;;;;;;39.63;9.23;;;;;;;;;;5049084;28;44247;-83
2021/12/28 02:18:41;;;;;;;33.00;8.40;;;;;;;;;;5050124;28;42899;-83
2021/12/28 02:21:08;;;;;;;40.25;9.10;;;;;;;;;;5049566;28;44870;-83
2021/12/28 02:23:35;;;;;;;29.05;9.75;;;;;;;;;;5049517;28;44747;-83
2021/12/28 02:26:02;;;;;;;25.48;7.63;;;;;;;;;;5049717;28;44001;-83
2021/12/28 02:28:29;;;;;;;40.20;8.77;;;;;;;;;;5050331;28;43579;-83
2021/12/28 02:30:57;;;;;;;29.13;8.00;;;;;;;;;;5048962;28;45059;-83
2021/12/28 02:33:24;;;;;;;49.40;9.75;;;;;;;;;;5049927;28;43209;-83
2021/12/28 02:35:52;;;;;;;44.57;8.73;;;;;;;;;;5049360;28;42477;-83
2021/12/28 02:38:19;;;;;;;40.60;9.93;;;;;;;;;;5049349;28;42844;-83
2021/12/28 02:40:46;;;;;;;44.20;8.15;;;;;;;;;;5050388;28;44685;-83
2021/12/28 02:43:14;;;;;;;40.85;8.65;;;;;;;;;;5048097;28;43765;-83
2021/12/28 02:45:47;;;;;;;43.55;8.80;;;;;;;;;;5050152;28;42871;-83
2021/12/28 02:48:14;;;;;;;39.25;8.77;;;;;;;;;;5049665;28;42206;-83
2021/12/28 02:50:50;;;;;;;35.42;8.15;;;;;;;;;;5048640;28;44906;-83
2021/12/28 02:53:18;;;;;;;29.90;8.38;;;;;;;;;;5049020;28;42919;-83
2021/12/28 02:55:45;;;;;;;51.65;8.98;;;;;;;;;;5049161;28;44728;-83
2021/12/28 02:58:21;;;;;;;42.00;9.05;;;;;;;;;;5048178;28;43463;-83
2021/12/28 03:00:50;;;;;;;32.17;8.20;;;;;;;;;;5050016;28;44687;-83
2021/12/28 03:03:18;;;;;;;43.17;8.63;;;;;;;;;;5049305;28;44942;-83
2021/12/28 03:05:46;;;;;;;33.65;8.73;;;;;;;;;;5048964;28;43908;-83
2021/12/28 03:08:13;;;;;;;35.53;8.15;;;;;;;;;;5048853;28;44508;-83
2021/12/28 03:10:41;;;;;;;36.85;9.85;;;;;;;;;;5050336;28;44998;-83
2021/12/28 03:13:09;;;;;;;30.55;7.90;;;;;;;;;;5048108;28;44088;-83
2021/12/28 03:15:35;;;;;;;32.38;8.20;;;;;;;;;;5049675;28;44919;-83
2021/12/28 03:18:02;;;;;;;32.72;8.20;;;;;;;;;;5048326;28;43175;-83
2021/12/28 03:20:32;;;;;;;48.67;9.10;;;;;;;;;;5049495;28;44768;-83
2021/12/28 03:22:59;;;;;;;34.70;8.82;;;;;;;;;;5049019;28;44910;-83
2021/12/28 03:25:25;;;;;;;35.13;8.98;;;;;;;;;;5048667;28;44869;-83
2021/12/28 03:27:52;;;;;;;45.55;9.35;;;;;;;;;;5049050;28;44705;-84
2021/12/28 03:30:19;;;;;;;46.20;8.77;;;;;;;;;;5049382;28;44957;-84
2021/12/28 03:32:46;;;;;;;34.72;8.88;;;;;;;;;;5048264;28;43979;-83
2021/12/28 03:35:13;;;;;;;29.17;8.18;;;;;;;;;;5049414;28;43794;-83
2021/12/28 03:37:41;;;;;;;46.70;9.15;;;;;;;;;;5049113;28;44024;-83
2021/12/28 03:40:09;;;;;;;36.57;7.53;;;;;;;;;;5048782;28;44759;-83
2021/12/28 03:42:36;;;;;;;39.50;8.70;;;;;;;;;;5052436;28;44819;-84
2021/12/28 03:45:04;;;;;;;36.97;8.52;;;;;;;;;;5067302;28;43869;-83
2021/12/28 03:47:31;;;;;;;37.65;8.00;;;;;;;;;;5059634;28;43703;-83
2021/12/28 03:50:00;;;;;;;36.53;7.93;;;;;;;;;;5050248;28;44896;-84
2021/12/28 03:52:30;;;;;;;45.05;8.63;;;;;;;;;;5052606;28;42883;-83
2021/12/28 03:54:57;;;;;;;42.65;8.27;;;;;;;;;;5052384;28;42430;-83
2021/12/28 03:57:24;;;;;;;33.28;7.93;;;;;;;;;;5051827;28;42826;-83
2021/12/28 03:59:50;;;;;;;45.30;8.23;;;;;;;;;;5052538;28;42175;-84
2021/12/28 04:02:17;;;;;;;36.97;7.57;;;;;;;;;;5051076;28;41824;-83
2021/12/28 04:04:44;;;;;;;37.83;7.30;;;;;;;;;;5052016;28;44981;-83
2021/12/28 04:07:17;;;;;;;36.40;7.78;;;;;;;;;;5051414;28;44633;-83
2021/12/28 04:12:17;;;;;;;37.28;7.38;;;;;;;;;;5051988;28;26396;-83
2021/12/28 04:14:44;;;;;;;43.72;7.90;;;;;;;;;;5051394;28;43686;-83
2021/12/28 04:17:11;;;;;;;32.15;6.65;;;;;;;;;;5052036;28;44994;-83
2021/12/28 04:19:38;;;;;;;40.75;6.72;;;;;;;;;;5052220;28;43137;-83
2021/12/28 04:22:05;;;;;;;37.72;5.78;;;;;;;;;;5050640;28;44436;-83
2021/12/28 04:24:32;;;;;;;30.92;6.28;;;;;;;;;;5051978;28;45115;-83
2021/12/28 04:27:18;;;;;;;29.73;5.97;;;;;;;;;;5050494;28;43638;-83
2021/12/28 04:29:46;;;;;;;37.50;6.45;;;;;;;;;;5050421;28;44239;-83
2021/12/28 04:32:13;;;;;;;32.60;6.82;;;;;;;;;;5051397;28;42859;-83
2021/12/28 04:34:39;;;;;;;35.63;6.60;;;;;;;;;;5052125;28;43776;-83
2021/12/28 04:37:07;;;;;;;31.08;6.22;;;;;;;;;;5050239;28;44210;-83
2021/12/28 04:39:36;;;;;;;46.65;6.60;;;;;;;;;;5052512;28;42360;-83
2021/12/28 04:42:02;;;;;;;33.35;5.90;;;;;;;;;;5051032;28;45020;-83
2021/12/28 04:44:29;;;;;;;37.90;6.57;;;;;;;;;;5050800;28;45173;-83
2021/12/28 04:46:56;;;;;;;34.65;6.10;;;;;;;;;;5050844;28;43301;-84
2021/12/28 04:49:25;;;;;;;24.30;5.45;;;;;;;;;;5051630;28;44933;-83
2021/12/28 04:51:52;;;;;;;40.75;6.47;;;;;;;;;;5050444;28;43921;-83
2021/12/28 04:54:20;;;;;;;27.00;5.43;;;;;;;;;;5051543;28;44748;-83
2021/12/28 04:56:47;;;;;;;30.00;5.97;;;;;;;;;;5050143;28;44152;-83
2021/12/28 04:59:14;;;;;;;38.67;5.85;;;;;;;;;;5052015;28;43042;-83
2021/12/28 05:01:42;;;;;;;29.27;5.43;;;;;;;;;;5049724;28;44917;-83
2021/12/28 05:04:09;;;;;;;26.48;5.38;;;;;;;;;;5049842;28;42929;-83
2021/12/28 05:06:35;;;;;;;31.60;5.22;;;;;;;;;;5050435;28;43572;-83
2021/12/28 05:09:03;;;;;;;42.05;6.07;;;;;;;;;;5051495;28;44201;-83
2021/12/28 05:11:31;;;;;;;32.22;5.10;;;;;;;;;;5048744;28;43428;-83
2021/12/28 05:13:58;;;;;;;31.83;5.60;;;;;;;;;;5049136;28;44765;-83
2021/12/28 05:16:28;;;;;;;26.75;4.82;;;;;;;;;;5048826;28;44985;-83
2021/12/28 05:18:56;;;;;;;29.60;5.22;;;;;;;;;;5048618;28;44357;-83
2021/12/28 05:21:27;;;;;;;32.33;5.22;;;;;;;;;;5050351;28;44983;-83
2021/12/28 05:23:54;;;;;;;21.52;4.90;;;;;;;;;;5051209;28;43990;-83
2021/12/28 05:26:20;;;;;;;27.70;4.95;;;;;;;;;;5049835;28;44649;-83
2021/12/28 05:28:47;;;;;;;27.58;4.90;;;;;;;;;;5050260;28;44972;-84
2021/12/28 05:31:14;;;;;;;27.20;5.38;;;;;;;;;;5050243;28;45129;-83
2021/12/28 05:33:41;;;;;;;29.48;4.93;;;;;;;;;;5049574;28;42729;-83
2021/12/28 05:36:08;;;;;;;22.77;5.15;;;;;;;;;;5049896;28;43871;-83
2021/12/28 05:38:35;;;;;;;34.88;5.15;;;;;;;;;;5050939;28;44740;-83
2021/12/28 05:41:02;;;;;;;21.38;4.40;;;;;;;;;;5049478;28;44018;-82
2021/12/28 05:43:29;;;;;;;22.30;5.18;;;;;;;;;;5049721;28;44821;-83
2021/12/28 05:45:56;;;;;;;26.17;4.93;;;;;;;;;;5046800;28;44722;-83
2021/12/28 05:48:23;;;;;;;25.17;4.57;;;;;;;;;;5048505;28;43916;-84
2021/12/28 05:50:50;;;;;;;27.48;4.75;;;;;;;;;;5048518;28;43288;-83
2021/12/28 05:53:16;;;;;;;25.55;5.38;;;;;;;;;;5047990;28;42626;-83
2021/12/28 05:55:44;;;;;;;19.83;4.75;;;;;;;;;;5050665;28;42921;-83
2021/12/28 05:58:11;;;;;;;23.48;4.60;;;;;;;;;;5049950;28;44035;-83
2021/12/28 06:00:37;;;;;;;26.63;4.18;;;;;;;;;;5049667;28;43713;-83
2021/12/28 06:03:05;;;;;;;27.63;4.95;;;;;;;;;;5049769;28;44903;-83
2021/12/28 06:05:32;;;;;;;22.30;4.82;;;;;;;;;;5050718;28;45263;-83
2021/12/28 06:07:58;;;;;;;19.05;4.38;;;;;;;;;;5048812;28;43848;-83
2021/12/28 06:10:25;;;;;;;18.92;4.22;;;;;;;;;;5050771;28;43862;-83
2021/12/28 06:12:52;;;;;;;24.33;4.53;;;;;;;;;;5048519;28;45083;-83
2021/12/28 06:15:19;;;;;;;20.15;4.65;;;;;;;;;;5049507;28;44877;-83
2021/12/28 06:17:46;;;;;;;35.40;5.00;;;;;;;;;;5049555;28;43834;-83
2021/12/28 06:20:12;;;;;;;24.38;4.15;;;;;;;;;;5050637;28;43660;-83
2021/12/28 06:22:39;;;;;;;18.80;4.03;;;;;;;;;;5049229;28;43891;-83
2021/12/28 06:25:12;;;;;;;19.38;3.90;;;;;;;;;;5050297;28;43926;-83
2021/12/28 06:27:39;;;;;;;22.27;3.55;;;;;;;;;;5050100;28;43610;-83
2021/12/28 06:30:06;;;;;;;22.70;4.13;;;;;;;;;;5049279;28;44858;-83
2021/12/28 06:32:36;;;;;;;20.20;4.18;;;;;;;;;;5051278;28;20056;-83
2021/12/28 06:35:04;;;;;;;15.93;3.33;;;;;;;;;;5049191;28;45263;-83
2021/12/28 06:37:31;;;;;;;18.50;4.03;;;;;;;;;;5050335;28;43561;-83
2021/12/28 06:39:57;;;;;;;17.85;4.22;;;;;;;;;;5049747;28;44709;-83
2021/12/28 06:42:24;;;;;;;21.00;3.50;;;;;;;;;;5048639;28;42325;-83
2021/12/28 06:44:52;;;;;;;24.10;3.65;;;;;;;;;;5049537;28;42683;-83
2021/12/28 06:47:19;;;;;;;20.48;3.58;;;;;;;;;;5049187;28;42611;-83
2021/12/28 06:49:46;;;;;;;18.45;3.22;;;;;;;;;;5049780;28;44899;-83
2021/12/28 06:52:13;;;;;;;22.08;3.38;;;;;;;;;;5049104;28;45047;-83
2021/12/28 06:54:40;;;;;;;15.10;3.55;;;;;;;;;;5050047;28;44877;-83
2021/12/28 06:57:10;;;;;;;22.00;3.53;;;;;;;;;;5048543;28;45364;-82
2021/12/28 06:59:43;;;;;;;20.05;4.10;;;;;;;;;;5049739;28;44817;-83
2021/12/28 07:02:13;;;;;;;20.05;3.95;;;;;;;;;;5048860;28;43945;-83
2021/12/28 07:04:40;;;;;;;21.55;3.63;;;;;;;;;;5049057;28;44904;-83
2021/12/28 07:07:07;;;;;;;21.67;3.13;;;;;;;;;;5049371;28;43743;-83
2021/12/28 07:09:34;;;;;;;17.35;3.15;;;;;;;;;;5050455;28;44973;-83
2021/12/28 07:12:01;;;;;;;15.57;2.75;;;;;;;;;;5048205;28;42092;-83
2021/12/28 07:14:28;;;;;;;23.13;3.03;;;;;;;;;;5049869;28;45253;-83
2021/12/28 07:16:55;;;;;;;16.27;2.45;;;;;;;;;;5048611;28;43820;-82
2021/12/28 07:19:23;;;;;;;17.87;3.30;;;;;;;;;;5049273;28;44761;-83
2021/12/28 07:21:49;;;;;;;16.08;3.22;;;;;;;;;;5048851;28;43446;-83
2021/12/28 07:24:16;;;;;;;21.35;3.05;;;;;;;;;;5050342;28;42953;-82
2021/12/28 07:26:43;;;;;;;20.00;3.25;;;;;;;;;;5053298;28;43690;-83
2021/12/28 07:29:10;;;;;;;23.45;3.13;;;;;;;;;;5057770;28;43973;-83
2021/12/28 07:31:37;;;;;;;16.10;3.38;;;;;;;;;;5066597;28;44284;-83
2021/12/28 07:34:04;;;;;;;12.25;3.03;;;;;;;;;;5060715;28;43886;-82
2021/12/28 07:36:31;;;;;;;18.17;3.22;;;;;;;;;;5052635;28;42904;-82
2021/12/28 07:38:57;;;;;;;14.52;3.17;;;;;;;;;;5052690;28;43630;-82
2021/12/28 07:41:24;;;;;;;15.63;3.78;;;;;;;;;;5052201;28;42345;-83
2021/12/28 07:43:51;;;;;;;14.25;3.22;;;;;;;;;;5052710;28;44226;-82
2021/12/28 07:46:17;;;;;;;17.42;3.45;;;;;;;;;;5051533;28;43649;-83
2021/12/28 07:48:44;;;;;;;18.70;3.78;;;;;;;;;;5052504;28;43807;-82
2021/12/28 07:51:11;;;;;;;17.08;3.60;;;;;;;;;;5052378;28;43934;-83
2021/12/28 07:53:37;;;;;;;22.45;3.90;;;;;;;;;;5052242;28;43617;-82
2021/12/28 07:56:04;;;;;;;17.08;4.18;;;;;;;;;;5052420;28;44265;-82
2021/12/28 07:58:31;;;;;;;18.92;4.30;;;;;;;;;;5052370;28;43629;-83
2021/12/28 08:00:57;;;;;;;18.27;4.15;;;;;;;;;;5052029;28;43581;-83
2021/12/28 08:03:24;;;;;;;17.13;4.55;;;;;;;;;;5052345;28;44143;-84
2021/12/28 08:05:52;;;;;;;19.20;4.55;;;;;;;;;;5052183;28;42661;-85
2021/12/28 08:08:19;;;;;;;23.80;4.43;;;;;;;;;;5051500;28;44984;-85
2021/12/28 08:10:45;;;;;;;15.93;4.45;;;;;;;;;;5051671;28;44238;-85
2021/12/28 08:13:13;;;;;;;21.67;5.28;;;;;;;;;;5051583;28;43718;-84
2021/12/28 08:15:39;;;;;;;17.52;4.80;;;;;;;;;;5051295;28;45247;-84
2021/12/28 08:18:09;;;;;;;16.52;5.07;;;;;;;;;;5051759;28;43191;-87
2021/12/28 08:20:36;;;;;;;18.13;5.03;;;;;;;;;;5052043;28;43700;-86
2021/12/28 08:23:03;;;;;;;19.67;5.17;;;;;;;;;;5049492;28;44181;-85
2021/12/28 08:25:30;;;;;;;23.20;6.00;;;;;;;;;;5050623;28;42627;-85
2021/12/28 08:27:58;;;;;;;15.73;5.05;;;;;;;;;;5048792;28;42822;-85
2021/12/28 08:30:24;;;;;;;17.23;5.10;;;;;;;;;;5051433;28;43808;-86
2021/12/28 08:32:51;;;;;;;20.75;5.20;;;;;;;;;;5049249;28;43630;-85
2021/12/28 08:35:18;;;;;;;16.73;5.65;;;;;;;;;;5047173;28;45183;-86
2021/12/28 08:37:45;;;;;;;15.25;5.93;;;;;;;;;;5049495;28;44281;-85
2021/12/28 08:40:12;;;;;;;19.83;6.05;;;;;;;;;;5051351;28;43933;-87
2021/12/28 08:42:39;;;;;;;24.15;6.45;;;;;;;;;;5049646;28;45372;-85
2021/12/28 08:45:07;;;;;;;23.38;6.13;;;;;;;;;;5050526;28;44451;-83
2021/12/28 08:47:33;;;;;;;21.13;6.07;;;;;;;;;;5051570;28;43463;-89
2021/12/28 08:50:00;;;;;;;17.25;5.57;;;;;;;;;;5050482;28;43857;-87
2021/12/28 08:52:27;;;;;;;17.27;5.63;;;;;;;;;;5051424;28;43610;-84
2021/12/28 08:54:54;;;;;;;24.05;6.43;;;;;;;;;;5051666;28;44934;-85
2021/12/28 08:57:21;;;;;;;18.15;6.57;;;;;;;;;;5050405;28;44904;-85
2021/12/28 08:59:47;;;;;;;14.95;6.22;;;;;;;;;;5051495;28;43777;-85
2021/12/28 09:02:14;;;;;;;23.67;6.68;;;;;;;;;;5051121;28;43867;-85
2021/12/28 09:04:43;;;;;;;16.83;6.50;;;;;;;;;;5050742;28;43674;-86
2021/12/28 09:07:10;;;;;;;20.23;6.43;;;;;;;;;;5050181;28;40241;-85
2021/12/28 09:09:37;;;;;;;17.48;6.28;;;;;;;;;;5049702;28;45029;-84
2021/12/28 09:12:04;;;;;;;18.17;6.55;;;;;;;;;;5049344;28;43144;-85
2021/12/28 09:14:32;;;;;;;13.60;6.20;;;;;;;;;;5049459;28;43930;-85
2021/12/28 09:16:58;;;;;;;20.33;6.50;;;;;;;;;;5048765;28;44940;-85
2021/12/28 09:19:25;;;;;;;12.43;5.93;;;;;;;;;;5050020;28;44832;-85
2021/12/28 09:21:52;;;;;;;14.15;6.50;;;;;;;;;;5048563;28;42912;-85
2021/12/28 09:24:19;;;;;;;17.13;7.38;;;;;;;;;;5047709;28;31425;-85
2021/12/28 09:27:05;;;;;;;14.73;6.65;;;;;;;;;;5000880;28;43004;-85
2021/12/28 09:29:32;;;;;;;19.88;7.57;;;;;;;;;;5048798;28;42885;-85
2021/12/28 09:31:59;;;;;;;17.98;7.13;;;;;;;;;;5048572;28;44671;-85
2021/12/28 09:34:27;;;;;;;15.37;8.00;;;;;;;;;;5051028;28;43733;-82
2021/12/28 09:36:57;;;;;;;20.67;9.18;;;;;;;;;;5050680;28;44080;-85
2021/12/28 09:39:26;;;;;;;;;;;;;;;;;;5052616;28;20053;-85
2021/12/28 09:41:53;;;;;;;14.50;8.13;;;;;;;;;;5050551;28;45032;-83
2021/12/28 09:44:21;;;;;;;16.30;7.33;;;;;;;;;;5050969;28;41844;-82
2021/12/28 09:46:48;;;;;;;21.97;8.43;;;;;;;;;;5049055;28;44885;-83
2021/12/28 09:49:14;;;;;;;19.52;8.35;;;;;;;;;;5049997;28;44900;-82
2021/12/28 09:51:42;;;;;;;17.40;8.33;;;;;;;;;;5045288;28;45973;-82
2021/12/28 09:54:09;;;;;;;11.05;7.18;;;;;;;;;;5042968;28;45133;-82
2021/12/28 09:56:36;;;;;;;13.80;8.15;;;;;;;;;;5048941;28;42881;-82
2021/12/28 09:59:04;;;;;;;13.02;7.65;;;;;;;;;;5049591;28;42891;-82
2021/12/28 10:01:31;;;;;;;18.10;8.93;;;;;;;;;;5049472;28;45075;-82
2021/12/28 10:03:59;;;;;;;12.35;7.88;;;;;;;;;;5048838;28;45378;-82
2021/12/28 10:06:27;;;;;;;12.68;7.60;;;;;;;;;;5049309;28;20463;-82
2021/12/28 10:09:26;;;;;;;11.52;7.32;;;;;;;;;;5049575;28;42607;-82
2021/12/28 10:11:54;;;;;;;16.98;8.43;;;;;;;;;;5022069;28;44753;-81
2021/12/28 10:14:22;;;;;;;15.82;9.25;;;;;;;;;;5055809;28;43872;-81
2021/12/28 10:16:53;;;;;;;17.10;8.55;;;;;;;;;;5055987;28;42186;-82
2021/12/28 10:19:38;;;;;;;14.50;8.75;;;;;;;;;;5054585;28;42540;-82
2021/12/28 10:22:18;;;;;;;15.88;8.90;;;;;;;;;;5054827;28;45055;-82
2021/12/28 10:24:45;;;;;;;12.07;8.60;;;;;;;;;;5047065;28;45108;-83
2021/12/28 10:27:14;;;;;;;11.63;8.73;;;;;;;;;;5045183;28;42735;-82
2021/12/28 10:29:40;;;;;;;;;;;;;;;;;;5048901;28;43065;-83
2021/12/28 10:32:17;;;;;;;16.45;9.07;;;;;;;;;;5048552;28;44799;-82
2021/12/28 10:34:45;;;;;;;13.75;9.15;;;;;;;;;;5047477;28;43571;-84
2021/12/28 10:37:16;;;;;;;15.63;8.73;;;;;;;;;;5047882;28;43931;-82
2021/12/28 10:39:43;;;;;;;16.52;10.20;;;;;;;;;;5047380;28;41421;-83
2021/12/28 10:42:10;;;;;;;16.08;8.75;;;;;;;;;;5046135;28;44931;-85
2021/12/28 10:44:56;;;;;;;17.17;9.82;;;;;;;;;;5046437;28;42785;-83
2021/12/28 10:47:26;;;;;;;16.30;8.98;;;;;;;;;;5049080;28;43885;-83
2021/12/28 10:49:56;;;;;;;12.35;8.73;;;;;;;;;;5043657;28;42921;-83
2021/12/28 10:52:26;;;;;;;15.65;8.80;;;;;;;;;;5047959;28;43459;-83
2021/12/28 10:55:22;;;;;;;11.32;8.40;;;;;;;;;;5047401;28;42817;-83
2021/12/28 10:57:49;;;;;;;13.05;8.98;;;;;;;;;;5037866;28;43915;-83
2021/12/28 11:00:26;;;;;;;11.50;8.40;;;;;;;;;;5048179;28;44694;-83
2021/12/28 11:03:16;;;;;;;13.63;8.45;;;;;;;;;;5047477;28;44902;-83
2021/12/28 11:05:44;;;;;;;11.93;8.07;;;;;;;;;;5048270;28;27384;-84
2021/12/28 11:08:11;;;;;;;11.05;8.40;;;;;;;;;;5048133;28;45664;-83
2021/12/28 11:10:43;;;;;;;11.13;7.90;;;;;;;;;;5050261;28;45040;-83
2021/12/28 11:13:12;;;;;;;10.60;7.75;;;;;;;;;;5069406;28;20046;-84
2021/12/28 11:15:44;;;;;;;10.13;7.03;;;;;;;;;;5058880;28;43872;-84
2021/12/28 11:18:17;;;;;;;8.15;6.30;;;;;;;;;;5056089;28;42890;-84
2021/12/28 11:20:44;;;;;;;8.43;6.70;;;;;;;;;;5056788;28;42891;-83
2021/12/28 11:23:15;;;;;;;10.27;6.70;;;;;;;;;;5056832;28;44268;-83
2021/12/28 11:25:42;;;;;;;6.63;5.78;;;;;;;;;;5056149;28;44167;-83
2021/12/28 11:28:13;;;;;;;8.70;5.93;;;;;;;;;;5056384;28;44661;-83
2021/12/28 11:30:56;;;;;;;7.93;5.90;;;;;;;;;;5055164;28;44783;-83
2021/12/28 11:33:23;;;;;;;6.32;5.30;;;;;;;;;;5057196;28;43661;-85
2021/12/28 11:35:49;;;;;;;12.27;6.35;;;;;;;;;;5056995;28;42550;-85
2021/12/28 11:38:16;;;;;;;10.90;6.63;;;;;;;;;;5052982;28;44943;-83
2021/12/28 11:40:43;;;;;;;7.78;5.47;;;;;;;;;;5055769;28;42672;-85
2021/12/28 11:43:10;;;;;;;8.18;6.32;;;;;;;;;;5055462;28;44925;-85
2021/12/28 11:45:37;;;;;;;8.93;5.78;;;;;;;;;;5052903;28;44884;-85
2021/12/28 11:48:04;;;;;;;10.68;6.80;;;;;;;;;;5055527;28;44909;-85
2021/12/28 11:50:31;;;;;;;10.85;6.90;;;;;;;;;;5056185;28;42934;-86
2021/12/28 11:52:58;;;;;;;8.52;4.85;;;;;;;;;;5052975;28;43905;-85
2021/12/28 11:55:25;;;;;;;8.95;6.03;;;;;;;;;;5054833;28;27417;-85
2021/12/28 11:57:53;;;;;;;7.22;4.95;;;;;;;;;;5054334;28;42913;-85
2021/12/28 12:00:22;;;;;;;8.75;6.28;;;;;;;;;;5053487;28;44513;-83
2021/12/28 12:02:51;;;;;;;9.85;6.10;;;;;;;;;;5054534;28;42542;-86
2021/12/28 12:05:20;;;;;;;10.55;6.35;;;;;;;;;;5055206;28;45028;-83
2021/12/28 12:08:04;;;;;;;11.32;6.40;;;;;;;;;;5052853;28;43734;-83
2021/12/28 12:10:33;;;;;;;16.73;6.85;;;;;;;;;;5052705;28;43441;-85
2021/12/28 12:13:01;;;;;;;12.00;6.43;;;;;;;;;;5046686;28;43783;-85
2021/12/28 12:15:27;;;;;;;;;;;;;;;;;;5051240;28;45150;-83
2021/12/28 12:18:00;;;;;;;8.88;5.78;;;;;;;;;;5047293;28;42853;-85
2021/12/28 12:20:30;;;;;;;18.52;7.93;;;;;;;;;;5047383;28;43408;-83
2021/12/28 12:23:03;;;;;;;19.65;6.50;;;;;;;;;;5049838;28;43501;-83
2021/12/28 12:25:41;;;;;;;22.48;6.47;;;;;;;;;;5050596;28;44927;-83
2021/12/28 12:28:09;;;;;;;2.85;2.55;;;;;;;;;;5049975;28;44872;-83
2021/12/28 12:30:49;;;;;;;2.00;1.80;;;;;;;;;;5053575;28;42644;-83
2021/12/28 12:33:16;;;;;;;5.05;2.00;;;;;;;;;;5057995;28;44860;-82
2021/12/28 12:35:49;;;;;;;4.90;2.10;;;;;;;;;;5058660;28;42644;-82
2021/12/28 12:38:16;;;;;;;6.85;1.30;;;;;;;;;;5057786;28;45510;-82
2021/12/28 12:41:01;;;;;;;12.75;2.13;;;;;;;;;;5058300;28;44986;-83
2021/12/28 12:43:39;;;;;;;6.95;1.73;;;;;;;;;;5058186;28;42353;-82
2021/12/28 12:46:18;;;;;;;10.93;1.48;;;;;;;;;;5047357;28;42957;-82
2021/12/28 12:48:44;;;;;;;19.42;2.65;;;;;;;;;;5024421;28;50993;-83
2021/12/28 12:53:47;;;;;;;17.88;2.00;;;;;;;;;;5020210;28;174734;-83
2021/12/28 12:56:15;;;;;;;20.05;2.17;;;;;;;;;;5056979;28;44181;-83
2021/12/28 12:58:45;;;;;;;11.00;1.98;;;;;;;;;;5058476;28;45120;-83
2021/12/28 13:01:24;;;;;;;21.73;2.53;;;;;;;;;;5055837;28;43839;-83
2021/12/28 13:03:52;;;;;;;21.60;3.30;;;;;;;;;;5058381;28;43700;-83
2021/12/28 13:06:37;;;;;;;24.10;3.17;;;;;;;;;;5057219;28;45942;-83
2021/12/28 13:09:04;;;;;;;25.95;2.72;;;;;;;;;;5057386;28;43642;-83
2021/12/28 13:11:32;;;;;;;41.55;3.28;;;;;;;;;;5056953;28;46136;-83
2021/12/28 13:13:59;;;;;;;34.00;3.67;;;;;;;;;;5059455;28;45202;-83
2021/12/28 13:16:26;;;;;;;32.13;3.78;;;;;;;;;;5056836;28;44757;-83
2021/12/28 13:19:11;;;;;;;31.77;3.80;;;;;;;;;;5057849;28;44986;-83
2021/12/28 13:21:39;;;;;;;39.33;4.05;;;;;;;;;;5057445;28;41563;-82
2021/12/28 13:24:05;;;;;;;39.05;4.03;;;;;;;;;;5058328;28;43672;-82
2021/12/28 13:26:45;;;;;;;50.10;5.70;;;;;;;;;;5057288;28;43842;-82
2021/12/28 13:29:25;;;;;;;44.67;5.00;;;;;;;;;;5058314;28;44803;-82
2021/12/28 13:31:53;;;;;;;51.63;5.03;;;;;;;;;;5055988;28;43901;-86
2021/12/28 13:34:20;;;;;;;42.22;4.93;;;;;;;;;;5058153;28;43214;-82
2021/12/28 13:36:47;;;;;;;36.15;4.57;;;;;;;;;;5056239;28;44241;-83
2021/12/28 13:39:14;;;;;;;49.03;5.63;;;;;;;;;;5057261;28;45292;-83
2021/12/28 13:41:48;;;;;;;38.47;5.33;;;;;;;;;;5057849;28;44909;-83
2021/12/28 13:44:15;;;;;;;39.45;5.70;;;;;;;;;;5056953;28;42608;-82
2021/12/28 13:46:42;;;;;;;56.17;6.13;;;;;;;;;;5057973;28;45092;-82
2021/12/28 13:49:14;;;;;;;40.33;6.47;;;;;;;;;;5057423;28;44859;-84
2021/12/28 13:51:41;;;;;;;38.10;6.05;;;;;;;;;;5056512;28;42922;-83
2021/12/28 13:54:08;;;;;;;42.30;6.10;;;;;;;;;;5057714;28;44898;-83
2021/12/28 13:56:37;;;;;;;34.50;5.68;;;;;;;;;;5056725;28;44718;-83
2021/12/28 13:59:08;;;;;;;38.05;6.38;;;;;;;;;;5056592;28;45331;-82
2021/12/28 14:01:39;;;;;;;49.63;6.32;;;;;;;;;;5056044;28;44201;-83
2021/12/28 14:04:16;;;;;;;64.35;6.25;;;;;;;;;;5057470;28;45771;-82
2021/12/28 14:06:45;;;;;;;47.67;6.77;;;;;;;;;;5056676;28;45059;-83
2021/12/28 14:09:11;;;;;;;;;;;;;;;;;;5058854;28;44871;-82
2021/12/28 14:11:45;;;;;;;43.40;5.90;;;;;;;;;;5057959;28;45151;-82
2021/12/28 14:14:14;;;;;;;39.15;5.07;;;;;;;;;;5057215;28;43940;-83
2021/12/28 14:16:50;;;;;;;34.28;4.95;;;;;;;;;;5056205;28;44723;-83
2021/12/28 14:19:17;;;;;;;47.75;6.05;;;;;;;;;;5056902;28;44916;-83
2021/12/28 14:21:44;;;;;;;55.35;6.32;;;;;;;;;;5056657;28;44943;-82
2021/12/28 14:24:11;;;;;;;33.92;5.20;;;;;;;;;;5057446;28;44703;-82
2021/12/28 14:26:43;;;;;;;43.03;5.43;;;;;;;;;;5055581;28;43899;-82
2021/12/28 14:29:20;;;;;;;36.95;5.57;;;;;;;;;;5050421;28;44808;-83
2021/12/28 14:31:51;;;;;;;42.20;6.20;;;;;;;;;;5047451;28;44595;-82
2021/12/28 14:34:38;;;;;;;42.85;5.15;;;;;;;;;;5046020;28;42915;-83
2021/12/28 14:37:06;;;;;;;44.92;5.30;;;;;;;;;;5048191;28;42569;-82
2021/12/28 14:39:35;;;;;;;31.77;4.53;;;;;;;;;;5049179;28;22593;-82
2021/12/28 14:42:07;;;;;;;38.85;6.50;;;;;;;;;;5047789;28;43838;-82
2021/12/28 14:44:36;;;;;;;41.67;6.45;;;;;;;;;;5048477;28;43940;-83
2021/12/28 14:47:13;;;;;;;40.17;4.97;;;;;;;;;;5048625;28;44300;-83